createdAt,value
2018-12-06T00:24:54.982Z,29.2
2018-12-06T00:25:45.569Z,29.3
2018-12-06T00:26:35.585Z,29.4
2018-12-06T00:27:25.385Z,29.4
2018-12-06T00:28:16.037Z,29.4
2018-12-06T00:29:05.750Z,29.4
2018-12-06T00:29:56.117Z,29.3
2018-12-06T00:30:46.755Z,29.3
2018-12-06T00:31:36.032Z,29.3
2018-12-06T00:32:25.684Z,29.3
2018-12-06T00:33:16.367Z,29.3
2018-12-06T00:34:06.359Z,29.2
2018-12-06T00:34:56.772Z,29.1
2018-12-06T00:35:44.727Z,28.8
2018-12-06T00:36:37.179Z,28.4
2018-12-06T00:37:25.786Z,28.1
2018-12-06T00:38:16.991Z,27.9
2018-12-06T00:39:57.051Z,27.7
2018-12-06T00:40:46.123Z,27.6
2018-12-06T00:41:37.171Z,27.6
2018-12-06T00:42:26.401Z,27.4
2018-12-06T00:43:16.210Z,27.1
2018-12-06T00:44:07.136Z,27.4
2018-12-06T00:44:57.394Z,27.7
2018-12-06T00:45:47.453Z,27.6
2018-12-06T00:46:36.470Z,27.3
2018-12-06T00:47:27.285Z,27.1
2018-12-06T00:48:16.047Z,27
2018-12-06T00:49:08.320Z,27.1
2018-12-06T00:49:57.010Z,27.4
2018-12-06T00:50:47.608Z,27.6
2018-12-06T00:51:36.759Z,27.8
2018-12-06T00:52:27.622Z,27.9
2018-12-06T00:53:17.454Z,28.1
2018-12-06T00:54:07.770Z,28.3
2018-12-06T00:54:58.035Z,28.3
2018-12-06T00:55:48.152Z,28.4
2018-12-06T00:56:38.217Z,28.6
2018-12-06T00:57:27.710Z,28.6
2018-12-06T00:58:17.876Z,28.8
2018-12-06T00:59:07.657Z,28.8
2018-12-06T00:59:57.332Z,28.9
2018-12-06T01:00:48.480Z,29
2018-12-06T01:01:37.762Z,29.1
2018-12-06T01:02:28.383Z,29.1
2018-12-06T01:03:18.210Z,29.2
2018-12-06T01:04:08.816Z,29.3
2018-12-06T01:04:58.014Z,29.3
2018-12-06T01:05:48.314Z,29.4
2018-12-06T01:06:38.449Z,29.4
2018-12-06T01:07:28.625Z,29.4
2018-12-06T01:08:18.494Z,29.4
2018-12-06T01:09:09.036Z,29.3
2018-12-06T01:09:58.169Z,29.4
2018-12-06T01:10:48.934Z,29.3
2018-12-06T01:11:38.126Z,29.3
2018-12-06T01:12:29.290Z,29.3
2018-12-06T01:13:18.809Z,29.2
2018-12-06T01:14:09.157Z,29
2018-12-06T01:14:59.283Z,28.6
2018-12-06T01:15:50.667Z,28.3
2018-12-06T01:16:38.483Z,28.1
2018-12-06T01:17:28.798Z,27.9
2018-12-06T01:18:19.461Z,27.9
2018-12-06T01:19:58.161Z,27.8
2018-12-06T01:20:49.636Z,27.7
2018-12-06T01:21:40.014Z,27.4
2018-12-06T01:22:29.673Z,27.2
2018-12-06T01:23:19.508Z,27.5
2018-12-06T01:24:10.368Z,27.9
2018-12-06T01:24:58.856Z,28.2
2018-12-06T01:25:49.818Z,27.6
2018-12-06T01:26:39.465Z,27.3
2018-12-06T01:27:29.101Z,27.1
2018-12-06T01:28:19.860Z,27.1
2018-12-06T01:29:10.193Z,27.3
2018-12-06T01:29:59.157Z,27.6
2018-12-06T01:30:50.082Z,27.8
2018-12-06T01:31:40.175Z,28
2018-12-06T01:32:30.737Z,28.1
2018-12-06T01:33:20.255Z,28.3
2018-12-06T01:34:10.543Z,28.4
2018-12-06T01:34:59.785Z,28.5
2018-12-06T01:35:50.620Z,28.6
2018-12-06T01:36:40.164Z,28.7
2018-12-06T01:37:30.822Z,28.8
2018-12-06T01:38:20.269Z,28.8
2018-12-06T01:39:10.363Z,28.9
2018-12-06T01:40:00.102Z,29
2018-12-06T01:40:51.050Z,29.1
2018-12-06T01:41:41.567Z,29.1
2018-12-06T01:42:31.680Z,29.2
2018-12-06T01:43:20.625Z,29.3
2018-12-06T01:44:10.959Z,29.3
2018-12-06T01:45:00.253Z,29.4
2018-12-06T01:45:51.299Z,29.4
2018-12-06T01:46:41.169Z,29.4
2018-12-06T01:47:31.096Z,29.4
2018-12-06T01:48:20.736Z,29.4
2018-12-06T01:49:11.139Z,29.4
2018-12-06T01:50:01.370Z,29.4
2018-12-06T01:50:51.991Z,29.4
2018-12-06T01:51:42.061Z,29.4
2018-12-06T01:52:31.531Z,29.4
2018-12-06T01:53:21.013Z,29.3
2018-12-06T01:54:10.771Z,28.8
2018-12-06T01:55:01.587Z,28.4
2018-12-06T01:55:51.208Z,28.1
2018-12-06T01:56:42.373Z,28
2018-12-06T01:57:31.910Z,27.9
2018-12-06T01:59:11.493Z,27.8
2018-12-06T02:00:02.345Z,27.7
2018-12-06T02:00:51.842Z,27.7
2018-12-06T02:01:42.222Z,27.3
2018-12-06T02:02:31.467Z,27.3
2018-12-06T02:03:21.735Z,27.6
2018-12-06T02:04:12.305Z,28.1
2018-12-06T02:05:02.401Z,27.8
2018-12-06T02:05:52.534Z,27.4
2018-12-06T02:06:42.247Z,27.2
2018-12-06T02:07:32.007Z,27.1
2018-12-06T02:08:22.692Z,27.2
2018-12-06T02:09:12.745Z,27.4
2018-12-06T02:10:02.192Z,27.6
2018-12-06T02:11:42.329Z,28
2018-12-06T02:12:32.663Z,28.1
2018-12-06T02:13:23.029Z,28.3
2018-12-06T02:14:13.042Z,28.4
2018-12-06T02:15:02.479Z,28.5
2018-12-06T02:15:52.634Z,28.6
2018-12-06T02:16:44.353Z,28.7
2018-12-06T02:17:32.509Z,28.8
2018-12-06T02:18:23.301Z,28.9
2018-12-06T02:19:13.736Z,28.9
2018-12-06T02:20:03.441Z,29
2018-12-06T02:20:53.218Z,28.9
2018-12-06T02:21:43.079Z,28.7
2018-12-06T02:22:33.268Z,28.6
2018-12-06T02:23:23.361Z,28.4
2018-12-06T02:24:13.530Z,28.5
2018-12-06T02:25:03.841Z,29.1
2018-12-06T02:25:54.376Z,29.6
2018-12-06T02:26:44.748Z,28.9
2018-12-06T02:27:32.951Z,28.4
2018-12-06T02:28:23.585Z,27.9
2018-12-06T02:29:13.830Z,27.6
2018-12-06T02:30:03.557Z,27.7
2018-12-06T02:30:54.036Z,27.9
2018-12-06T02:31:44.405Z,28.1
2018-12-06T02:32:34.452Z,28.3
2018-12-06T02:33:24.142Z,28.4
2018-12-06T02:34:15.573Z,28.5
2018-12-06T02:35:04.731Z,28.6
2018-12-06T02:35:53.745Z,28.8
2018-12-06T02:36:45.015Z,28.8
2018-12-06T02:37:35.278Z,28.9
2018-12-06T02:38:24.858Z,29
2018-12-06T02:39:14.705Z,29.1
2018-12-06T02:40:04.873Z,29.2
2018-12-06T02:40:54.957Z,29.3
2018-12-06T02:41:44.703Z,29.3
2018-12-06T02:42:34.753Z,29.4
2018-12-06T02:43:24.594Z,29.4
2018-12-06T02:44:14.648Z,29.4
2018-12-06T02:45:04.339Z,29.4
2018-12-06T02:45:54.989Z,29.3
2018-12-06T02:46:44.506Z,29.4
2018-12-06T02:47:35.494Z,29.4
2018-12-06T02:48:25.535Z,29.4
2018-12-06T02:49:15.824Z,29.4
2018-12-06T02:50:06.175Z,29.4
2018-12-06T02:50:55.325Z,29.1
2018-12-06T02:51:44.544Z,28.6
2018-12-06T02:52:35.555Z,28.3
2018-12-06T02:53:25.999Z,28.1
2018-12-06T02:54:15.666Z,27.9
2018-12-06T02:55:55.663Z,27.8
2018-12-06T02:56:45.641Z,27.8
2018-12-06T02:57:36.434Z,27.7
2018-12-06T02:58:25.793Z,27.4
2018-12-06T02:59:15.941Z,27.3
2018-12-06T03:00:06.631Z,27.6
2018-12-06T03:00:55.522Z,28.1
2018-12-06T03:01:45.810Z,28.1
2018-12-06T03:02:36.111Z,27.6
2018-12-06T03:03:26.521Z,27.3
2018-12-06T03:04:16.544Z,27.2
2018-12-06T03:05:06.677Z,27.2
2018-12-06T03:05:56.657Z,27.4
2018-12-06T03:06:46.749Z,27.6
2018-12-06T03:08:26.468Z,28
2018-12-06T03:09:17.273Z,28.1
2018-12-06T03:10:06.946Z,28.3
2018-12-06T03:10:57.261Z,28.4
2018-12-06T03:11:47.336Z,28.5
2018-12-06T03:12:37.090Z,28.6
2018-12-06T03:13:27.022Z,28.7
2018-12-06T03:14:16.926Z,28.8
2018-12-06T03:15:07.941Z,28.9
2018-12-06T03:15:56.775Z,28.9
2018-12-06T03:16:47.114Z,29
2018-12-06T03:17:37.443Z,29.1
2018-12-06T03:18:27.958Z,29.2
2018-12-06T03:19:18.097Z,29.3
2018-12-06T03:20:07.918Z,29.3
2018-12-06T03:20:57.910Z,29.4
2018-12-06T03:21:46.688Z,29.4
2018-12-06T03:22:38.037Z,29.4
2018-12-06T03:23:27.563Z,29.4
2018-12-06T03:24:18.228Z,29.4
2018-12-06T03:25:08.002Z,29.4
2018-12-06T03:25:57.165Z,29.4
2018-12-06T03:26:47.520Z,29.4
2018-12-06T03:27:38.158Z,29.4
2018-12-06T03:28:28.005Z,29.4
2018-12-06T03:29:18.606Z,29.4
2018-12-06T03:30:07.963Z,29.3
2018-12-06T03:30:59.400Z,28.8
2018-12-06T03:31:48.968Z,28.4
2018-12-06T03:32:38.757Z,28.2
2018-12-06T03:33:29.604Z,28
2018-12-06T03:34:19.125Z,27.9
2018-12-06T03:35:58.282Z,27.8
2018-12-06T03:36:51.523Z,27.7
2018-12-06T03:37:38.635Z,27.6
2018-12-06T03:38:27.835Z,27.2
2018-12-06T03:39:18.949Z,27.4
2018-12-06T03:40:08.772Z,27.6
2018-12-06T03:40:59.305Z,28.3
2018-12-06T03:42:37.527Z,27.4
2018-12-06T03:43:28.912Z,27.2
2018-12-06T03:44:19.152Z,27.1
2018-12-06T03:45:09.304Z,27.3
2018-12-06T03:45:59.966Z,27.5
2018-12-06T03:46:49.832Z,27.8
2018-12-06T03:47:39.046Z,27.9
2018-12-06T03:48:29.805Z,28.1
2018-12-06T03:49:19.779Z,28.2
2018-12-06T03:50:09.866Z,28.3
2018-12-06T03:50:59.484Z,28.4
2018-12-06T03:51:50.066Z,28.5
2018-12-06T03:52:40.516Z,28.6
2018-12-06T03:53:29.062Z,28.7
2018-12-06T03:54:20.478Z,28.8
2018-12-06T03:55:09.570Z,28.9
2018-12-06T03:56:00.346Z,29
2018-12-06T03:56:50.208Z,29
2018-12-06T03:57:38.559Z,29.1
2018-12-06T03:58:30.379Z,29.2
2018-12-06T03:59:20.413Z,29.2
2018-12-06T04:00:10.635Z,29.3
2018-12-06T04:01:00.434Z,29.3
2018-12-06T04:01:50.755Z,29.4
2018-12-06T04:02:39.938Z,29.4
2018-12-06T04:03:30.571Z,29.4
2018-12-06T04:04:20.970Z,29.4
2018-12-06T04:05:10.721Z,29.4
2018-12-06T04:06:01.301Z,29.4
2018-12-06T04:06:51.018Z,29.4
2018-12-06T04:07:41.186Z,29.4
2018-12-06T04:08:30.660Z,29.4
2018-12-06T04:09:21.655Z,29.4
2018-12-06T04:10:12.421Z,29.3
2018-12-06T04:11:01.233Z,28.9
2018-12-06T04:11:51.678Z,28.5
2018-12-06T04:12:40.194Z,28.2
2018-12-06T04:13:31.381Z,28
2018-12-06T04:15:11.723Z,27.8
2018-12-06T04:16:01.204Z,27.7
2018-12-06T04:16:51.787Z,27.6
2018-12-06T04:17:41.530Z,27.7
2018-12-06T04:18:31.072Z,27.2
2018-12-06T04:19:21.466Z,27.4
2018-12-06T04:20:11.493Z,27.6
2018-12-06T04:21:02.358Z,28.4
2018-12-06T04:21:51.570Z,27.7
2018-12-06T04:22:42.420Z,27.3
2018-12-06T04:23:32.336Z,27.2
2018-12-06T04:24:22.195Z,27.1
2018-12-06T04:25:27.492Z,27.3
2018-12-06T04:26:01.616Z,27.6
2018-12-06T04:26:52.162Z,27.7
2018-12-06T04:27:41.945Z,27.9
2018-12-06T04:28:31.452Z,28.1
2018-12-06T04:29:22.339Z,28.2
2018-12-06T04:30:11.735Z,28.3
2018-12-06T04:31:03.027Z,28.4
2018-12-06T04:31:52.240Z,28.6
2018-12-06T04:32:42.885Z,28.6
2018-12-06T04:33:32.432Z,28.7
2018-12-06T04:34:22.252Z,28.8
2018-12-06T04:35:12.871Z,28.9
2018-12-06T04:36:03.187Z,28.9
2018-12-06T04:36:52.177Z,29.1
2018-12-06T04:54:11.531Z,27.9
2018-12-06T04:55:00.591Z,27.8
2018-12-06T04:55:51.136Z,27.8
2018-12-06T04:56:40.719Z,27.7
2018-12-06T04:57:31.486Z,27.5
2018-12-06T04:58:21.921Z,27.2
2018-12-06T04:59:11.944Z,27.5
2018-12-06T05:00:01.723Z,27.8
2018-12-06T05:00:52.022Z,28.6
2018-12-06T05:02:31.802Z,27.4
2018-12-06T05:03:20.611Z,27.3
2018-12-06T05:04:12.115Z,27.1
2018-12-06T05:05:01.120Z,27.3
2018-12-06T05:05:50.988Z,27.5
2018-12-06T05:06:42.091Z,27.8
2018-12-06T05:07:31.370Z,27.9
2018-12-06T05:08:21.383Z,28.1
2018-12-06T05:09:12.500Z,28.2
2018-12-06T05:10:02.008Z,28.3
2018-12-06T05:10:51.595Z,28.4
2018-12-06T05:11:42.135Z,28.6
2018-12-06T05:12:30.042Z,28.6
2018-12-06T05:13:21.995Z,28.7
2018-12-06T05:14:13.445Z,28.8
2018-12-06T05:15:02.443Z,28.9
2018-12-06T05:15:52.430Z,28.9
2018-12-06T05:16:42.200Z,29
2018-12-06T05:17:31.135Z,29.1
2018-12-06T05:18:22.312Z,29.1
2018-12-06T05:19:12.900Z,29.1
2018-12-06T05:20:02.443Z,29
2018-12-06T05:20:52.307Z,28.8
2018-12-06T05:21:42.572Z,28.6
2018-12-06T05:22:32.627Z,28.5
2018-12-06T05:23:22.669Z,29.1
2018-12-06T05:24:12.396Z,29.8
2018-12-06T05:25:03.306Z,29.3
2018-12-06T05:25:52.042Z,28.8
2018-12-06T05:26:43.432Z,28.3
2018-12-06T05:27:33.616Z,27.9
2018-12-06T05:29:13.049Z,27.9
2018-12-06T05:30:04.464Z,28.1
2018-12-06T05:30:54.094Z,28.3
2018-12-06T05:31:42.679Z,28.4
2018-12-06T05:32:33.911Z,28.6
2018-12-06T05:33:22.509Z,28.7
2018-12-06T05:34:13.248Z,28.8
2018-12-06T05:35:03.801Z,28.9
2018-12-06T05:35:54.058Z,28.9
2018-12-06T05:36:43.191Z,29
2018-12-06T05:37:33.355Z,29.1
2018-12-06T05:38:23.980Z,29.2
2018-12-06T05:39:13.500Z,29.3
2018-12-06T05:40:03.842Z,29.3
2018-12-06T05:40:53.970Z,29.4
2018-12-06T05:41:44.232Z,29.4
2018-12-06T05:42:33.780Z,29.4
2018-12-06T05:43:24.585Z,29.4
2018-12-06T05:44:13.525Z,29.4
2018-12-06T05:45:03.958Z,29.4
2018-12-06T05:45:55.300Z,29.4
2018-12-06T05:46:44.525Z,29.5
2018-12-06T05:47:34.175Z,29.5
2018-12-06T05:48:23.929Z,29.5
2018-12-06T05:49:14.785Z,29.4
2018-12-06T05:50:04.084Z,29.4
2018-12-06T05:50:55.036Z,28.9
2018-12-06T05:51:44.658Z,28.5
2018-12-06T05:52:34.730Z,28.1
2018-12-06T05:53:24.437Z,27.9
2018-12-06T05:55:05.424Z,27.7
2018-12-06T05:55:54.639Z,27.6
2018-12-06T05:56:44.799Z,27.6
2018-12-06T05:57:33.274Z,27.4
2018-12-06T05:58:23.521Z,27.2
2018-12-06T05:59:14.909Z,27.5
2018-12-06T06:00:05.224Z,27.8
2018-12-06T06:00:56.079Z,28.4
2018-12-06T06:01:44.844Z,27.7
2018-12-06T06:02:35.304Z,27.4
2018-12-06T06:03:25.453Z,27.2
2018-12-06T06:04:15.844Z,27.2
2018-12-06T06:05:06.171Z,27.3
2018-12-06T06:05:56.143Z,27.6
2018-12-06T06:06:45.611Z,27.8
2018-12-06T06:07:35.762Z,27.9
2018-12-06T06:08:25.266Z,28.1
2018-12-06T06:09:15.536Z,28.2
2018-12-06T06:10:05.956Z,28.3
2018-12-06T06:10:55.655Z,28.4
2018-12-06T06:11:45.998Z,28.6
2018-12-06T06:12:36.820Z,28.6
2018-12-06T06:13:26.690Z,28.7
2018-12-06T06:14:16.193Z,28.8
2018-12-06T06:15:06.492Z,28.9
2018-12-06T06:15:55.381Z,28.9
2018-12-06T06:16:45.985Z,29
2018-12-06T06:17:36.678Z,29.1
2018-12-06T06:18:25.722Z,29.1
2018-12-06T06:19:15.910Z,29.2
2018-12-06T06:20:06.539Z,29.3
2018-12-06T06:20:56.925Z,29.3
2018-12-06T06:21:47.186Z,29.4
2018-12-06T06:22:36.647Z,29.4
2018-12-06T06:23:27.727Z,29.4
2018-12-06T06:24:16.794Z,29.5
2018-12-06T06:25:07.067Z,29.5
2018-12-06T06:25:56.989Z,29.4
2018-12-06T06:26:47.324Z,29.4
2018-12-06T06:27:36.324Z,29.4
2018-12-06T06:28:26.738Z,29.4
2018-12-06T06:29:17.337Z,29.4
2018-12-06T06:30:06.962Z,29.4
2018-12-06T06:30:57.100Z,29.4
2018-12-06T06:31:46.557Z,29.4
2018-12-06T06:32:36.711Z,28.9
2018-12-06T06:33:28.641Z,28.4
2018-12-06T06:34:16.660Z,28.2
2018-12-06T06:35:07.081Z,28
2018-12-06T06:35:57.421Z,27.9
2018-12-06T06:37:37.741Z,27.8
2018-12-06T06:38:27.236Z,27.7
2018-12-06T06:39:19.661Z,27.4
2018-12-06T06:40:07.169Z,27.2
2018-12-06T06:40:57.406Z,27.5
2018-12-06T06:42:38.089Z,28.6
2018-12-06T06:44:18.177Z,27.4
2018-12-06T06:45:07.978Z,27.3
2018-12-06T06:45:58.658Z,27.2
2018-12-06T06:46:48.159Z,27.3
2018-12-06T06:47:39.588Z,27.6
2018-12-06T06:48:28.463Z,27.8
2018-12-06T06:49:24.825Z,27.9
2018-12-06T06:50:08.872Z,28.1
2018-12-06T06:50:58.900Z,28.2
2018-12-06T06:51:48.650Z,28.3
2018-12-06T06:52:39.538Z,28.4
2018-12-06T06:53:27.202Z,28.5
2018-12-06T06:54:18.357Z,28.6
2018-12-06T06:55:09.493Z,28.7
2018-12-06T06:55:59.527Z,28.8
2018-12-06T06:56:49.318Z,28.9
2018-12-06T06:57:37.780Z,28.9
2018-12-06T06:58:29.427Z,29
2018-12-06T06:59:26.518Z,29
2018-12-06T07:00:09.830Z,29.1
2018-12-06T07:00:59.845Z,29.1
2018-12-06T07:01:49.702Z,29.2
2018-12-06T07:02:39.847Z,29.3
2018-12-06T07:03:30.063Z,29.3
2018-12-06T07:04:19.530Z,29.4
2018-12-06T07:05:09.850Z,29.4
2018-12-06T07:05:59.670Z,29.4
2018-12-06T07:06:49.410Z,29.4
2018-12-06T07:07:39.192Z,29.4
2018-12-06T07:08:30.652Z,29.5
2018-12-06T07:09:20.129Z,29.4
2018-12-06T07:10:09.354Z,29.3
2018-12-06T07:11:00.367Z,29.1
2018-12-06T07:11:50.634Z,29
2018-12-06T07:12:40.110Z,28.9
2018-12-06T07:13:30.492Z,28.8
2018-12-06T07:14:19.679Z,28.6
2018-12-06T07:15:10.936Z,28.4
2018-12-06T07:16:00.612Z,28.3
2018-12-06T07:16:50.123Z,28.1
2018-12-06T07:17:40.749Z,28
2018-12-06T07:18:30.770Z,27.9
2018-12-06T07:20:10.062Z,27.8
2018-12-06T07:21:00.089Z,27.6
2018-12-06T07:21:50.164Z,27.6
2018-12-06T07:22:40.784Z,27.5
2018-12-06T07:23:32.061Z,27.4
2018-12-06T07:24:21.564Z,27.4
2018-12-06T07:25:11.253Z,27.2
2018-12-06T07:26:01.283Z,26.9
2018-12-06T07:26:53.299Z,26.8
2018-12-06T07:27:41.511Z,26.6
2018-12-06T07:28:30.891Z,26.5
2018-12-06T07:29:21.204Z,26.4
2018-12-06T07:30:18.008Z,26.3
2018-12-06T07:31:01.166Z,26.7
2018-12-06T07:31:51.415Z,26.9
2018-12-06T07:32:40.418Z,27.3
2018-12-06T07:34:21.299Z,27.4
2018-12-06T07:35:11.676Z,27
2018-12-06T07:36:02.273Z,26.8
2018-12-06T07:36:52.065Z,26.8
2018-12-06T07:37:41.031Z,26.9
2018-12-06T07:38:32.390Z,27.2
2018-12-06T07:39:22.139Z,27.4
2018-12-06T07:40:11.440Z,27.6
2018-12-06T07:41:02.023Z,27.8
2018-12-06T07:41:51.835Z,27.9
2018-12-06T07:42:42.434Z,28
2018-12-06T07:43:33.717Z,28.1
2018-12-06T07:44:22.886Z,28.3
2018-12-06T07:45:12.375Z,28.4
2018-12-06T07:46:02.394Z,28.4
2018-12-06T07:46:51.959Z,28.6
2018-12-06T07:47:41.678Z,28.6
2018-12-06T07:48:32.279Z,28.7
2018-12-06T07:49:23.763Z,28.8
2018-12-06T07:50:13.207Z,28.9
2018-12-06T07:51:03.364Z,28.9
2018-12-06T07:51:52.341Z,29
2018-12-06T07:52:42.065Z,29.1
2018-12-06T07:53:32.429Z,29.1
2018-12-06T07:54:24.049Z,29.2
2018-12-06T07:55:13.396Z,29.2
2018-12-06T07:56:02.673Z,29.3
2018-12-06T07:56:52.371Z,29.3
2018-12-06T07:57:42.121Z,29.4
2018-12-06T07:58:32.771Z,29.4
2018-12-06T07:59:24.554Z,29.4
2018-12-06T08:00:13.701Z,29.3
2018-12-06T08:01:02.404Z,29.3
2018-12-06T08:01:53.199Z,29.3
2018-12-06T08:02:43.549Z,29.3
2018-12-06T08:03:33.079Z,29.3
2018-12-06T08:04:24.151Z,29.3
2018-12-06T08:05:13.514Z,29.2
2018-12-06T08:06:04.306Z,28.9
2018-12-06T08:06:54.398Z,28.4
2018-12-06T08:07:43.069Z,28.1
2018-12-06T08:08:33.736Z,27.9
2018-12-06T08:10:13.786Z,27.7
2018-12-06T08:11:03.352Z,27.7
2018-12-06T08:11:54.683Z,27.6
2018-12-06T08:12:43.950Z,27.6
2018-12-06T08:13:34.890Z,27.5
2018-12-06T08:14:24.420Z,27.4
2018-12-06T08:15:14.938Z,27.4
2018-12-06T08:16:03.410Z,27.3
2018-12-06T08:16:54.195Z,26.9
2018-12-06T08:17:44.310Z,26.6
2018-12-06T08:18:35.270Z,26.5
2018-12-06T08:19:25.021Z,26.4
2018-12-06T08:20:15.812Z,26.3
2018-12-06T08:21:03.992Z,26.1
2018-12-06T08:21:55.237Z,26.1
2018-12-06T08:22:44.715Z,26.4
2018-12-06T08:23:35.525Z,26.8
2018-12-06T08:24:24.747Z,27.2
2018-12-06T08:25:16.984Z,27.5
2018-12-06T08:26:05.517Z,27
2018-12-06T08:26:55.277Z,26.8
2018-12-06T08:27:45.002Z,26.7
2018-12-06T08:28:34.290Z,26.7
2018-12-06T08:29:25.110Z,26.9
2018-12-06T08:30:15.697Z,27.2
2018-12-06T08:31:05.765Z,27.4
2018-12-06T08:31:54.576Z,27.6
2018-12-06T08:32:46.083Z,27.6
2018-12-06T08:33:34.831Z,27.5
2018-12-06T08:34:26.008Z,27.3
2018-12-06T08:35:16.607Z,27.3
2018-12-06T08:36:05.892Z,27.2
2018-12-06T08:36:55.940Z,27.3
2018-12-06T08:37:46.834Z,27.7
2018-12-06T08:38:36.312Z,28.1
2018-12-06T08:39:24.696Z,28.6
2018-12-06T08:40:17.019Z,27.9
2018-12-06T08:41:04.914Z,27.4
2018-12-06T08:41:55.964Z,27
2018-12-06T08:42:54.264Z,26.8
2018-12-06T08:43:37.631Z,26.9
2018-12-06T08:44:31.364Z,27.1
2018-12-06T08:45:17.089Z,27.4
2018-12-06T08:46:05.684Z,27.6
2018-12-06T08:46:56.283Z,27.8
2018-12-06T08:47:46.628Z,27.9
2018-12-06T08:48:36.413Z,28
2018-12-06T08:49:27.028Z,28.1
2018-12-06T08:50:17.613Z,28.3
2018-12-06T08:51:06.563Z,28.4
2018-12-06T08:51:57.176Z,28.4
2018-12-06T09:08:35.032Z,29.2
2018-12-06T09:09:24.512Z,29.2
2018-12-06T09:10:14.229Z,29.1
2018-12-06T09:11:03.980Z,29.1
2018-12-06T09:11:55.162Z,28.6
2018-12-06T09:12:45.131Z,28.2
2018-12-06T09:13:34.707Z,27.9
2018-12-06T09:15:15.029Z,27.7
2018-12-06T09:16:04.529Z,27.6
2018-12-06T09:16:55.994Z,27.6
2018-12-06T09:17:45.837Z,27.5
2018-12-06T09:18:36.409Z,27.4
2018-12-06T09:19:24.516Z,27.4
2018-12-06T09:20:14.707Z,27.3
2018-12-06T09:21:06.263Z,27.3
2018-12-06T09:21:54.686Z,27
2018-12-06T09:22:45.372Z,26.7
2018-12-06T09:23:36.166Z,26.5
2018-12-06T09:24:26.001Z,26.3
2018-12-06T09:25:24.491Z,26.2
2018-12-06T09:26:06.611Z,26.1
2018-12-06T09:27:03.546Z,26.2
2018-12-06T09:27:46.563Z,26.8
2018-12-06T09:28:38.904Z,27.3
2018-12-06T09:29:26.570Z,27.8
2018-12-06T09:30:16.598Z,27.2
2018-12-06T09:31:11.663Z,26.8
2018-12-06T09:31:56.783Z,26.6
2018-12-06T09:32:45.105Z,26.6
2018-12-06T09:33:36.501Z,26.8
2018-12-06T09:34:26.913Z,27.1
2018-12-06T09:35:16.280Z,27.3
2018-12-06T09:36:06.533Z,27.5
2018-12-06T09:36:56.520Z,27.7
2018-12-06T09:38:37.187Z,27.9
2018-12-06T09:39:26.483Z,28.1
2018-12-06T09:40:16.475Z,28.2
2018-12-06T09:41:06.787Z,28.3
2018-12-06T09:41:57.155Z,28.4
2018-12-06T09:42:46.977Z,28.5
2018-12-06T09:43:36.781Z,28.6
2018-12-06T09:44:27.378Z,28.7
2018-12-06T09:45:16.883Z,28.8
2018-12-06T09:46:07.177Z,28.9
2018-12-06T09:46:56.932Z,28.9
2018-12-06T09:47:48.082Z,29
2018-12-06T09:48:37.944Z,29.1
2018-12-06T09:49:28.039Z,29.1
2018-12-06T09:50:17.437Z,29.3
2018-12-06T09:51:09.932Z,29.3
2018-12-06T09:51:57.815Z,29.3
2018-12-06T09:52:48.444Z,29.4
2018-12-06T09:53:37.670Z,29.4
2018-12-06T09:54:28.142Z,29.3
2018-12-06T09:55:18.609Z,29.3
2018-12-06T09:56:08.642Z,29.3
2018-12-06T09:56:57.609Z,29.2
2018-12-06T09:57:47.669Z,29.2
2018-12-06T09:58:38.569Z,29.1
2018-12-06T09:59:28.942Z,29.1
2018-12-06T10:00:18.537Z,28.9
2018-12-06T10:01:08.252Z,28.4
2018-12-06T10:01:58.304Z,28.1
2018-12-06T10:02:48.561Z,27.9
2018-12-06T10:04:28.750Z,27.7
2018-12-06T10:05:20.630Z,27.6
2018-12-06T10:06:08.544Z,27.6
2018-12-06T10:06:58.337Z,27.5
2018-12-06T10:07:48.386Z,27.5
2018-12-06T10:08:39.044Z,27.4
2018-12-06T10:09:28.971Z,27.4
2018-12-06T10:10:19.431Z,27.3
2018-12-06T10:11:10.046Z,26.9
2018-12-06T10:11:58.986Z,26.6
2018-12-06T10:12:47.386Z,26.4
2018-12-06T10:13:38.771Z,26.3
2018-12-06T10:14:30.389Z,26.2
2018-12-06T10:15:19.786Z,26.1
2018-12-06T10:16:09.193Z,26.4
2018-12-06T10:16:59.556Z,26.8
2018-12-06T10:17:49.043Z,27.4
2018-12-06T10:18:40.313Z,27.3
2018-12-06T10:19:30.018Z,26.9
2018-12-06T10:20:20.351Z,26.7
2018-12-06T10:21:09.913Z,26.6
2018-12-06T10:21:59.851Z,26.7
2018-12-06T10:22:49.180Z,27
2018-12-06T10:23:41.338Z,27.3
2018-12-06T10:24:30.335Z,27.5
2018-12-06T10:25:20.138Z,27.7
2018-12-06T10:27:00.258Z,28
2018-12-06T10:27:49.738Z,28.1
2018-12-06T10:28:42.288Z,28.3
2018-12-06T10:29:30.478Z,28.4
2018-12-06T10:30:20.818Z,28.4
2018-12-06T10:31:10.612Z,28.6
2018-12-06T10:32:00.575Z,28.7
2018-12-06T10:32:50.620Z,28.8
2018-12-06T10:33:40.150Z,28.9
2018-12-06T10:34:30.504Z,28.9
2018-12-06T10:35:21.762Z,29
2018-12-06T10:36:11.147Z,29.1
2018-12-06T10:37:01.265Z,29.1
2018-12-06T10:37:50.564Z,29.3
2018-12-06T10:38:41.137Z,29.3
2018-12-06T10:39:30.994Z,29.3
2018-12-06T10:40:22.201Z,29.4
2018-12-06T10:41:11.634Z,29.3
2018-12-06T10:42:01.800Z,29.3
2018-12-06T10:42:51.411Z,29.2
2018-12-06T10:43:41.391Z,29.1
2018-12-06T10:44:31.201Z,29.1
2018-12-06T10:45:21.818Z,29.1
2018-12-06T10:46:11.574Z,29
2018-12-06T10:47:01.851Z,28.8
2018-12-06T10:47:51.949Z,28.4
2018-12-06T10:48:42.026Z,28.1
2018-12-06T10:49:31.311Z,27.9
2018-12-06T10:50:21.644Z,27.8
2018-12-06T10:51:13.932Z,27.7
2018-12-06T10:52:01.963Z,27.6
2018-12-06T10:52:51.766Z,27.6
2018-12-06T10:53:41.509Z,27.5
2018-12-06T10:54:31.946Z,27.4
2018-12-06T10:55:21.769Z,27.4
2018-12-06T10:56:12.811Z,27.4
2018-12-06T10:57:02.261Z,27.3
2018-12-06T10:57:51.313Z,27.3
2018-12-06T10:58:41.566Z,27.1
2018-12-06T10:59:33.331Z,26.8
2018-12-06T11:00:23.456Z,27.1
2018-12-06T11:01:12.931Z,27.5
2018-12-06T11:02:03.693Z,27.6
2018-12-06T11:02:52.431Z,27.1
2018-12-06T11:03:43.333Z,26.9
2018-12-06T11:04:32.071Z,26.8
2018-12-06T11:05:22.611Z,26.8
2018-12-06T11:06:12.783Z,27.1
2018-12-06T11:07:03.620Z,27.3
2018-12-06T11:07:52.758Z,27.6
2018-12-06T11:08:42.578Z,27.8
2018-12-06T11:09:33.465Z,27.9
2018-12-06T11:10:23.296Z,28.1
2018-12-06T11:11:13.876Z,28.2
2018-12-06T11:12:03.792Z,28.3
2018-12-06T11:12:53.668Z,28.4
2018-12-06T11:13:44.001Z,28.6
2018-12-06T11:14:33.808Z,28.7
2018-12-06T11:15:23.555Z,28.8
2018-12-06T11:16:13.955Z,28.9
2018-12-06T11:17:03.417Z,28.9
2018-12-06T11:17:53.705Z,29
2018-12-06T11:18:43.325Z,29.1
2018-12-06T11:19:33.837Z,29.2
2018-12-06T11:20:23.640Z,29.3
2018-12-06T11:21:14.310Z,29.3
2018-12-06T11:22:03.755Z,29.3
2018-12-06T11:22:55.187Z,29.3
2018-12-06T11:23:43.864Z,29.3
2018-12-06T11:24:33.815Z,29.3
2018-12-06T11:25:24.257Z,29.2
2018-12-06T11:26:14.089Z,29.2
2018-12-06T11:27:04.159Z,29.1
2018-12-06T11:27:55.052Z,29.1
2018-12-06T11:28:43.999Z,29
2018-12-06T11:29:33.986Z,28.9
2018-12-06T11:30:24.658Z,28.8
2018-12-06T11:31:15.552Z,28.8
2018-12-06T11:32:04.910Z,28.7
2018-12-06T11:32:54.828Z,28.6
2018-12-06T11:33:44.901Z,28.6
2018-12-06T11:34:35.426Z,28.5
2018-12-06T11:35:25.074Z,28.4
2018-12-06T11:36:14.440Z,28.4
2018-12-06T11:37:04.309Z,28.3
2018-12-06T11:37:55.731Z,28.3
2018-12-06T11:38:45.821Z,28.2
2018-12-06T11:39:34.969Z,28.1
2018-12-06T11:40:25.044Z,28
2018-12-06T11:41:15.966Z,27.9
2018-12-06T11:42:05.816Z,27.9
2018-12-06T11:43:45.571Z,27.7
2018-12-06T11:44:34.816Z,27.6
2018-12-06T11:45:25.106Z,27.6
2018-12-06T11:46:14.998Z,27.3
2018-12-06T11:47:05.327Z,26.9
2018-12-06T11:47:57.986Z,27.1
2018-12-06T11:48:45.844Z,27.4
2018-12-06T11:49:35.400Z,27.2
2018-12-06T11:50:25.968Z,26.9
2018-12-06T11:51:16.867Z,26.6
2018-12-06T11:52:06.509Z,26.6
2018-12-06T11:52:55.896Z,26.6
2018-12-06T11:53:45.223Z,26.9
2018-12-06T11:54:36.274Z,27.2
2018-12-06T11:55:28.491Z,27.4
2018-12-06T11:56:16.968Z,27.6
2018-12-06T11:57:07.018Z,27.8
2018-12-06T11:57:56.615Z,27.9
2018-12-06T11:58:46.347Z,28.1
2018-12-06T11:59:36.176Z,28.2
2018-12-06T12:00:27.250Z,28.3
2018-12-06T12:01:16.987Z,28.4
2018-12-06T12:02:15.185Z,28.6
2018-12-06T12:02:56.860Z,28.8
2018-12-06T12:03:47.787Z,28.8
2018-12-06T12:04:37.000Z,28.9
2018-12-06T12:05:27.565Z,29
2018-12-06T12:06:17.122Z,29.1
2018-12-06T12:07:07.860Z,29.1
2018-12-06T12:07:57.232Z,29.2
2018-12-06T12:08:48.205Z,29.3
2018-12-06T12:09:37.745Z,29.3
2018-12-06T12:10:27.734Z,29.3
2018-12-06T12:11:17.244Z,29.3
2018-12-06T12:12:07.322Z,29.2
2018-12-06T12:12:57.409Z,29.1
2018-12-06T12:13:47.748Z,29.1
2018-12-06T12:14:36.970Z,29
2018-12-06T12:15:27.478Z,28.9
2018-12-06T12:16:18.587Z,28.9
2018-12-06T12:17:08.912Z,28.8
2018-12-06T12:17:57.638Z,28.7
2018-12-06T12:18:47.408Z,28.6
2018-12-06T12:19:38.139Z,28.6
2018-12-06T12:20:27.792Z,28.4
2018-12-06T12:21:18.501Z,28.4
2018-12-06T12:22:08.800Z,28.3
2018-12-06T12:22:58.989Z,28.3
2018-12-06T12:23:47.494Z,28.2
2018-12-06T12:24:39.167Z,28.2